Time;durP1;ratioP1;P1;durP2;ratioP2;P2;SDS_P1;SDS_P2;PMS_P1;PMS_P2;Temp;Humidity;BMP_temperature;BMP_pressure;BME280_temperature;BME280_humidity;BME280_pressure;Samples;Min_cycle;Max_cycle;Signal;HPM_P1;HPM_P2
2022/06/05 00:00:17;;;;;;;18.73;7.65;;;27.70;57.40;;;;;;5073624;28;20028;-74
2022/06/05 00:02:57;;;;;;;18.10;6.90;;;27.70;57.40;;;;;;5073828;28;20112;-74
2022/06/05 00:05:27;;;;;;;14.68;6.40;;;27.70;57.30;;;;;;5054017;28;20087;-74
2022/06/05 00:08:00;;;;;;;16.02;6.80;;;27.70;57.20;;;;;;5054216;28;20132;-73
2022/06/05 00:10:32;;;;;;;12.20;6.60;;;27.70;57.40;;;;;;5053763;28;20094;-73
2022/06/05 00:13:23;;;;;;;13.88;6.75;;;27.60;57.70;;;;;;5054031;28;20025;-74
2022/06/05 00:15:49;;;;;;;13.15;6.30;;;27.60;57.60;;;;;;5053653;28;20509;-74
2022/06/05 00:18:15;;;;;;;11.50;6.13;;;27.60;57.50;;;;;;5053858;28;20044;-75
2022/06/05 00:20:43;;;;;;;14.65;6.30;;;27.50;57.60;;;;;;5054039;28;20029;-73
2022/06/05 00:23:09;;;;;;;11.65;6.40;;;27.50;57.90;;;;;;5053134;28;20102;-73
2022/06/05 00:25:47;;;;;;;;;;;27.50;57.80;;;;;;5053619;28;20031;-74
2022/06/05 00:28:36;;;;;;;9.25;3.05;;;27.50;57.50;;;;;;5051856;28;19969;-74
2022/06/05 00:31:07;;;;;;;11.23;2.97;;;27.50;57.00;;;;;;5042383;28;20075;-73
2022/06/05 00:33:37;;;;;;;12.50;2.85;;;27.50;57.00;;;;;;5052788;28;20135;-74
2022/06/05 00:36:50;;;;;;;10.10;2.55;;;27.50;56.90;;;;;;5052952;28;20017;-73
2022/06/05 00:39:34;;;;;;;10.48;2.90;;;27.50;57.00;;;;;;5030925;28;20060;-73
2022/06/05 00:42:09;;;;;;;7.10;2.35;;;27.50;56.90;;;;;;5031075;28;20027;-74
2022/06/05 00:44:43;;;;;;;9.40;2.87;;;27.50;56.80;;;;;;5014272;28;20033;-72
2022/06/05 00:47:12;;;;;;;10.93;2.60;;;27.50;56.80;;;;;;5030899;28;20021;-73
2022/06/05 00:49:43;;;;;;;6.13;2.25;;;27.40;56.50;;;;;;5030962;28;20082;-73
2022/06/05 00:52:11;;;;;;;10.18;2.20;;;27.40;56.40;;;;;;5014006;28;20022;-73
2022/06/05 00:54:39;;;;;;;9.02;2.33;;;27.40;56.30;;;;;;5013857;28;20071;-73
2022/06/05 00:57:11;;;;;;;6.28;2.15;;;27.40;56.10;;;;;;5030726;28;20037;-74
2022/06/05 00:59:39;;;;;;;8.57;2.22;;;27.40;55.70;;;;;;5030837;28;20047;-72
2022/06/05 01:02:08;;;;;;;9.45;2.40;;;27.40;55.80;;;;;;5013841;28;20425;-73
2022/06/05 01:04:36;;;;;;;10.90;2.42;;;27.40;55.80;;;;;;5013516;28;20049;-74
2022/06/05 01:07:03;;;;;;;6.22;2.00;;;27.40;55.30;;;;;;5013757;28;20018;-74
2022/06/05 01:09:29;;;;;;;8.45;2.00;;;27.40;54.50;;;;;;5030380;28;20045;-74
2022/06/05 01:12:22;;;;;;;7.32;1.80;;;27.40;54.20;;;;;;5030412;28;20414;-74
2022/06/05 01:15:25;;;;;;;6.15;1.80;;;27.40;53.50;;;;;;5041089;28;20044;-74
2022/06/05 01:18:16;;;;;;;8.05;1.85;;;27.40;53.30;;;;;;5052693;28;20028;-73
2022/06/05 01:21:19;;;;;;;7.07;1.70;;;27.30;53.70;;;;;;5052358;28;20045;-75
2022/06/05 01:24:15;;;;;;;10.27;2.10;;;27.30;54.60;;;;;;5052706;28;20024;-75
2022/06/05 01:27:00;;;;;;;8.85;2.10;;;27.30;54.00;;;;;;5052837;28;20044;-75
2022/06/05 01:29:50;;;;;;;6.20;1.77;;;27.30;54.10;;;;;;5052650;28;20058;-73
2022/06/05 01:32:24;;;;;;;7.95;2.08;;;27.20;54.10;;;;;;5041489;28;20102;-75
2022/06/05 01:34:57;;;;;;;4.97;2.10;;;27.30;54.30;;;;;;5052725;28;20022;-76
2022/06/05 01:37:27;;;;;;;8.70;1.80;;;27.20;54.30;;;;;;5050881;28;20045;-76
2022/06/05 01:40:09;;;;;;;7.88;1.77;;;27.30;54.00;;;;;;5052566;28;20065;-76
2022/06/05 01:42:43;;;;;;;6.90;1.50;;;27.20;54.00;;;;;;5050776;28;20342;-76
2022/06/05 01:45:39;;;;;;;4.68;1.85;;;27.20;54.00;;;;;;5051854;28;20044;-75
2022/06/05 01:48:09;;;;;;;7.50;1.83;;;27.20;54.10;;;;;;5050031;28;20521;-76
2022/06/05 01:50:41;;;;;;;7.75;1.98;;;27.20;54.30;;;;;;5052192;28;20381;-76
2022/06/05 01:53:32;;;;;;;5.03;1.67;;;27.20;54.30;;;;;;5050625;28;20064;-74
2022/06/05 01:56:04;;;;;;;8.63;1.58;;;27.10;54.50;;;;;;5052359;28;20061;-76
2022/06/05 01:58:39;;;;;;;11.98;1.90;;;27.10;54.50;;;;;;5052132;28;20414;-75
2022/06/05 02:01:12;;;;;;;6.53;1.73;;;27.10;54.50;;;;;;5051947;28;20029;-76
2022/06/05 02:03:46;;;;;;;5.53;1.80;;;27.10;54.70;;;;;;5058340;28;20079;-75
2022/06/05 02:06:19;;;;;;;4.75;1.80;;;27.10;54.70;;;;;;5072238;28;20032;-75
2022/06/05 02:08:58;;;;;;;8.50;1.90;;;27.10;54.90;;;;;;5071965;28;20042;-75
2022/06/05 02:11:26;;;;;;;6.70;1.92;;;27.00;55.00;;;;;;5072266;28;20107;-75
2022/06/05 02:14:01;;;;;;;6.43;2.10;;;27.00;55.10;;;;;;5071579;28;20063;-73
2022/06/05 02:16:30;;;;;;;8.13;1.95;;;27.00;55.20;;;;;;5072247;28;20027;-74
2022/06/05 02:18:59;;;;;;;8.27;1.95;;;27.00;55.20;;;;;;5071680;28;20020;-75
2022/06/05 02:21:27;;;;;;;7.43;1.80;;;27.00;55.00;;;;;;5053533;28;20113;-75
2022/06/05 02:23:53;;;;;;;10.50;1.90;;;27.00;55.00;;;;;;5071934;28;20044;-73
2022/06/05 02:26:19;;;;;;;9.02;1.98;;;26.90;55.20;;;;;;5071580;28;20369;-73
2022/06/05 02:28:48;;;;;;;12.55;2.08;;;26.90;55.20;;;;;;5071688;28;20063;-75
2022/06/05 02:31:31;;;;;;;7.07;2.00;;;26.90;55.40;;;;;;5053359;28;20111;-75
2022/06/05 02:34:22;;;;;;;6.18;1.92;;;26.80;55.50;;;;;;5053521;28;20044;-75
2022/06/05 02:37:05;;;;;;;5.13;1.90;;;26.80;55.60;;;;;;5054373;28;20429;-75
2022/06/05 02:39:41;;;;;;;6.63;1.85;;;26.70;55.60;;;;;;5071889;28;20093;-75
2022/06/05 02:42:26;;;;;;;7.00;1.85;;;26.80;55.70;;;;;;5072004;28;20424;-74
2022/06/05 02:45:17;;;;;;;6.50;1.92;;;26.70;55.70;;;;;;5072008;28;20020;-75
2022/06/05 02:48:08;;;;;;;8.73;1.83;;;26.70;55.80;;;;;;5053369;28;20031;-75
2022/06/05 02:50:40;;;;;;;6.43;2.20;;;26.70;56.10;;;;;;5071909;28;20031;-74
2022/06/05 02:53:09;;;;;;;8.77;2.10;;;26.70;56.40;;;;;;5071793;28;20029;-73
2022/06/05 02:55:36;;;;;;;8.30;2.08;;;26.70;56.70;;;;;;5071984;28;20560;-74
2022/06/05 02:58:02;;;;;;;;;;;26.80;56.70;;;;;;5075588;28;20095;-75
2022/06/05 03:00:31;;;;;;;8.07;2.15;;;26.80;56.60;;;;;;5075089;28;19996;-75
2022/06/05 03:05:43;;;;;;;8.52;2.00;;;26.90;56.80;;;;;;5075520;28;20105;-75
2022/06/05 03:08:13;;;;;;;7.05;2.00;;;26.90;56.20;;;;;;5056942;28;20123;-75
2022/06/05 03:10:41;;;;;;;10.38;2.30;;;27.00;56.30;;;;;;5075320;28;20107;-74
2022/06/05 03:13:08;;;;;;;5.63;1.98;;;26.90;56.20;;;;;;5074870;28;20031;-76
2022/06/05 03:15:34;;;;;;;9.80;2.10;;;27.00;56.10;;;;;;5075154;28;20143;-76
2022/06/05 03:18:01;;;;;;;8.25;1.90;;;27.00;56.20;;;;;;5074722;28;20107;-77
2022/06/05 03:20:27;;;;;;;;;;;27.00;56.20;;;;;;5075387;28;20116;-77
2022/06/05 03:22:54;;;;;;;5.18;1.80;;;26.90;56.10;;;;;;5074836;28;19940;-76
2022/06/05 03:25:23;;;;;;;6.32;1.83;;;27.00;56.30;;;;;;5074740;28;20055;-77
2022/06/05 03:27:49;;;;;;;7.85;1.88;;;26.90;56.30;;;;;;5074580;28;20107;-76
2022/06/05 03:30:16;;;;;;;7.07;1.88;;;26.90;56.30;;;;;;5074712;28;20031;-77
2022/06/05 03:32:43;;;;;;;11.55;1.95;;;26.90;56.30;;;;;;5074552;28;20020;-75
2022/06/05 03:35:10;;;;;;;8.05;1.80;;;26.90;56.40;;;;;;5074638;28;20449;-79
2022/06/05 03:37:37;;;;;;;11.43;1.98;;;26.80;56.70;;;;;;5074570;28;20060;-75
2022/06/05 03:40:14;;;;;;;5.75;2.00;;;26.80;56.80;;;;;;5074385;28;20499;-75
2022/06/05 03:42:40;;;;;;;6.47;2.05;;;26.70;57.30;;;;;;5074816;28;20017;-74
2022/06/05 03:45:12;;;;;;;7.93;2.03;;;26.70;57.60;;;;;;5056067;28;20508;-75
2022/06/05 03:47:39;;;;;;;7.60;1.95;;;26.60;57.60;;;;;;5056160;28;20089;-74
2022/06/05 03:50:06;;;;;;;10.13;2.67;;;26.60;57.70;;;;;;5056086;28;20043;-74
2022/06/05 03:52:32;;;;;;;9.88;2.15;;;26.70;57.80;;;;;;5073868;28;20028;-74
2022/06/05 03:54:58;;;;;;;11.48;2.40;;;26.60;57.80;;;;;;5055875;28;20055;-75
2022/06/05 03:57:24;;;;;;;6.10;1.98;;;26.60;57.80;;;;;;5074210;28;20153;-74
2022/06/05 03:59:50;;;;;;;8.57;1.92;;;26.70;57.60;;;;;;5074062;28;20039;-75
2022/06/05 04:02:16;;;;;;;6.70;1.98;;;26.70;57.30;;;;;;5073958;28;20055;-74
2022/06/05 04:04:42;;;;;;;7.78;1.77;;;26.80;57.20;;;;;;5073662;28;20094;-75
2022/06/05 04:07:09;;;;;;;7.57;2.10;;;26.80;57.20;;;;;;5073216;28;20035;-75
2022/06/05 04:09:35;;;;;;;9.85;2.40;;;26.80;57.20;;;;;;5074117;28;20025;-75
2022/06/05 04:12:01;;;;;;;6.65;2.28;;;26.80;57.40;;;;;;5074075;28;20017;-75
2022/06/05 04:14:27;;;;;;;6.15;2.00;;;26.80;57.60;;;;;;5074041;28;20028;-75
2022/06/05 04:16:53;;;;;;;9.93;2.20;;;26.90;58.70;;;;;;5074014;28;20067;-75
2022/06/05 04:19:21;;;;;;;9.73;2.30;;;26.90;58.20;;;;;;5073596;28;20056;-75
2022/06/05 04:21:47;;;;;;;7.80;2.30;;;26.90;57.90;;;;;;5073835;28;20508;-76
2022/06/05 04:24:47;;;;;;;8.70;2.20;;;27.00;58.40;;;;;;5073535;28;20433;-76
2022/06/05 04:27:13;;;;;;;7.72;2.03;;;27.00;57.40;;;;;;5055300;28;20345;-75
2022/06/05 04:29:40;;;;;;;6.30;1.90;;;27.00;57.30;;;;;;5073509;28;20549;-77
2022/06/05 04:32:06;;;;;;;6.70;2.22;;;27.00;57.10;;;;;;5055177;28;20036;-75
2022/06/05 04:34:32;;;;;;;;;;;27.10;56.90;;;;;;5073833;28;20376;-75
2022/06/05 04:36:58;;;;;;;8.90;1.90;;;27.20;56.80;;;;;;5073746;28;19915;-75
2022/06/05 04:39:24;;;;;;;8.38;2.30;;;27.30;56.90;;;;;;5055050;28;20390;-77
2022/06/05 04:41:51;;;;;;;9.90;2.35;;;27.30;57.00;;;;;;5073289;28;20016;-77
2022/06/05 04:44:18;;;;;;;12.93;2.80;;;27.40;57.10;;;;;;5073256;28;20032;-77
2022/06/05 04:46:44;;;;;;;9.77;1.85;;;27.40;57.30;;;;;;5073431;28;20096;-77
2022/06/05 04:49:12;;;;;;;6.05;2.00;;;27.50;56.90;;;;;;5073138;28;20032;-77
2022/06/05 04:51:38;;;;;;;9.70;2.35;;;27.60;56.60;;;;;;5073365;28;20341;-75
2022/06/05 04:54:05;;;;;;;;;;;27.60;56.40;;;;;;5073490;28;20429;-77
2022/06/05 04:56:32;;;;;;;13.95;2.22;;;27.60;56.20;;;;;;5072952;28;20352;-76
2022/06/05 04:58:59;;;;;;;10.02;2.30;;;27.80;56.30;;;;;;5072903;28;20036;-77
2022/06/05 05:01:29;;;;;;;9.82;2.03;;;28.20;56.00;;;;;;5073295;28;20520;-77
2022/06/05 05:03:57;;;;;;;10.40;1.92;;;28.90;55.00;;;;;;5072495;28;20075;-76
2022/06/05 05:06:25;;;;;;;8.95;2.08;;;29.60;53.80;;;;;;5073135;28;20096;-77
2022/06/05 05:08:51;;;;;;;10.30;2.72;;;30.40;52.20;;;;;;5072623;28;20393;-75
2022/06/05 05:11:19;;;;;;;11.23;2.03;;;31.00;51.40;;;;;;5072754;28;20024;-78
2022/06/05 05:13:45;;;;;;;9.15;2.05;;;31.60;50.80;;;;;;5073360;28;20452;-77
2022/06/05 05:16:11;;;;;;;8.57;2.03;;;32.00;50.30;;;;;;5072908;28;20074;-75
2022/06/05 05:18:38;;;;;;;8.10;2.00;;;32.30;50.10;;;;;;5073106;28;20032;-76
2022/06/05 05:21:09;;;;;;;10.05;2.20;;;33.00;49.30;;;;;;5055133;28;20075;-77
2022/06/05 05:23:36;;;;;;;6.43;1.90;;;33.80;48.70;;;;;;5073038;28;20021;-78
2022/06/05 05:26:09;;;;;;;9.38;2.20;;;34.10;48.20;;;;;;5072804;28;20024;-77
2022/06/05 05:28:36;;;;;;;14.18;2.75;;;34.70;48.40;;;;;;5072525;28;20101;-75
2022/06/05 05:31:06;;;;;;;8.25;2.10;;;34.50;48.20;;;;;;5072547;28;20059;-76
2022/06/05 05:33:32;;;;;;;12.60;2.20;;;33.90;49.40;;;;;;5072279;28;20024;-76
2022/06/05 05:35:57;;;;;;;;;;;33.60;49.50;;;;;;5073097;28;20069;-76
2022/06/05 05:38:23;;;;;;;7.38;2.10;;;33.70;49.60;;;;;;5072391;28;20003;-77
2022/06/05 05:43:34;;;;;;;4.97;1.70;;;35.00;46.70;;;;;;5072374;28;20455;-76
2022/06/05 05:46:00;;;;;;;14.27;2.22;;;35.50;45.10;;;;;;5072196;28;20028;-78
2022/06/05 05:48:26;;;;;;;11.05;2.00;;;35.80;44.20;;;;;;5072394;28;20017;-77
2022/06/05 05:50:52;;;;;;;12.18;2.00;;;36.20;43.90;;;;;;5071969;28;20025;-78
2022/06/05 05:53:18;;;;;;;9.60;2.15;;;36.40;43.30;;;;;;5072208;28;20386;-77
2022/06/05 05:55:45;;;;;;;10.57;2.13;;;36.90;43.10;;;;;;5071903;28;20440;-77
2022/06/05 05:58:12;;;;;;;7.47;1.90;;;37.50;42.40;;;;;;5071746;28;20039;-77
2022/06/05 06:00:44;;;;;;;11.30;2.17;;;38.30;41.60;;;;;;5071634;28;20039;-76
2022/06/05 06:03:10;;;;;;;6.47;1.67;;;38.90;41.10;;;;;;5071613;28;20056;-75
2022/06/05 06:05:36;;;;;;;9.70;2.15;;;38.90;40.70;;;;;;5071557;28;20040;-76
2022/06/05 06:08:03;;;;;;;10.18;1.63;;;39.00;40.40;;;;;;5072135;28;20016;-77
2022/06/05 06:10:29;;;;;;;11.75;2.00;;;38.70;40.50;;;;;;5071636;28;20024;-76
2022/06/05 06:12:55;;;;;;;8.63;1.55;;;38.00;41.10;;;;;;5071822;28;20027;-78
2022/06/05 06:15:21;;;;;;;7.40;1.88;;;37.70;41.40;;;;;;5072106;28;20078;-77
2022/06/05 06:17:47;;;;;;;11.25;2.28;;;37.50;41.70;;;;;;5053783;28;20028;-76
2022/06/05 06:20:13;;;;;;;10.55;2.85;;;37.30;42.10;;;;;;5072134;28;20082;-77
2022/06/05 06:22:41;;;;;;;9.88;3.10;;;37.40;42.30;;;;;;5071806;28;20112;-77
2022/06/05 06:25:47;;;;;;;8.88;3.30;;;37.00;42.60;;;;;;5053631;28;20085;-77
2022/06/05 06:28:13;;;;;;;9.23;2.78;;;37.30;42.50;;;;;;5071734;28;20020;-78
2022/06/05 06:30:40;;;;;;;10.57;2.97;;;37.10;42.60;;;;;;5072784;28;20461;-77
2022/06/05 06:33:07;;;;;;;12.45;2.80;;;36.90;42.80;;;;;;5075739;28;20021;-77
2022/06/05 06:35:37;;;;;;;12.65;2.50;;;36.70;43.10;;;;;;5075692;28;20036;-77
2022/06/05 06:38:04;;;;;;;8.02;2.15;;;37.10;42.80;;;;;;5075986;28;20020;-78
2022/06/05 06:40:30;;;;;;;12.68;2.03;;;37.20;42.70;;;;;;5075572;28;20071;-76
2022/06/05 06:42:57;;;;;;;9.20;1.90;;;37.30;42.30;;;;;;5075901;28;20056;-76
2022/06/05 06:45:25;;;;;;;8.43;2.15;;;37.60;42.10;;;;;;5075894;28;20028;-77
2022/06/05 06:47:51;;;;;;;14.00;2.25;;;38.00;41.70;;;;;;5075541;28;20048;-78
2022/06/05 06:50:17;;;;;;;11.13;2.13;;;38.50;41.00;;;;;;5075844;28;20036;-76
2022/06/05 06:52:44;;;;;;;11.30;2.30;;;38.80;40.80;;;;;;5075380;28;20020;-78
2022/06/05 06:55:16;;;;;;;8.05;1.88;;;39.10;40.30;;;;;;5075678;28;20017;-76
2022/06/05 06:57:43;;;;;;;13.02;2.40;;;39.70;39.70;;;;;;5075709;28;20025;-76
2022/06/05 07:00:15;;;;;;;12.52;2.20;;;40.30;39.00;;;;;;5074917;28;20036;-76
2022/06/05 07:02:41;;;;;;;7.57;2.15;;;40.20;39.10;;;;;;5075645;28;20028;-77
2022/06/05 07:05:07;;;;;;;11.65;2.42;;;40.30;38.90;;;;;;5075113;28;20512;-76
2022/06/05 07:07:34;;;;;;;10.63;2.40;;;40.90;38.70;;;;;;5057373;28;20115;-77
2022/06/05 07:10:00;;;;;;;10.30;2.22;;;41.80;38.30;;;;;;5075618;28;20206;-76
2022/06/05 07:12:26;;;;;;;13.20;2.60;;;43.00;37.50;;;;;;5075703;28;20025;-76
2022/06/05 07:14:52;;;;;;;9.32;2.30;;;43.20;36.70;;;;;;5075611;28;20044;-76
2022/06/05 07:17:18;;;;;;;13.50;2.45;;;43.20;36.40;;;;;;5075381;28;20090;-77
2022/06/05 07:19:44;;;;;;;12.73;2.28;;;42.70;36.10;;;;;;5057286;28;20076;-76
2022/06/05 07:22:10;;;;;;;11.95;2.42;;;41.40;37.00;;;;;;5075454;28;20372;-76
2022/06/05 07:24:36;;;;;;;11.70;2.53;;;40.40;37.90;;;;;;5075424;28;20025;-77
2022/06/05 07:27:02;;;;;;;12.13;2.83;;;39.60;38.50;;;;;;5075301;28;20029;-76
2022/06/05 07:29:28;;;;;;;9.05;2.25;;;39.00;39.50;;;;;;5075330;28;20373;-76
2022/06/05 07:31:55;;;;;;;10.88;2.42;;;38.60;40.20;;;;;;5075111;28;20024;-76
2022/06/05 07:34:23;;;;;;;11.43;2.47;;;38.20;40.60;;;;;;5075364;28;20484;-76
2022/06/05 07:36:50;;;;;;;11.15;2.40;;;38.50;40.90;;;;;;5075146;28;20028;-77
2022/06/05 07:39:16;;;;;;;11.73;2.58;;;39.20;40.60;;;;;;5074899;28;20024;-76
2022/06/05 07:41:42;;;;;;;12.38;2.70;;;39.60;40.10;;;;;;5075499;28;20449;-76
2022/06/05 07:44:08;;;;;;;9.23;2.45;;;40.00;39.70;;;;;;5074907;28;20118;-78
2022/06/05 07:46:36;;;;;;;8.52;2.30;;;40.40;39.70;;;;;;5074544;28;20059;-77
2022/06/05 07:49:03;;;;;;;12.60;2.38;;;40.60;39.40;;;;;;5074636;28;20069;-77
2022/06/05 07:54:27;;;;;;;11.55;2.42;;;40.90;39.10;;;;;;5075311;28;20078;-76
2022/06/05 07:57:04;;;;;;;9.43;2.22;;;40.90;39.10;;;;;;5074306;28;20040;-77
2022/06/05 07:59:33;;;;;;;9.65;2.35;;;41.10;39.20;;;;;;5074013;28;20040;-76
2022/06/05 08:02:01;;;;;;;14.32;2.25;;;41.00;38.10;;;;;;5074235;28;20453;-77
2022/06/05 08:04:28;;;;;;;14.88;2.58;;;40.80;38.30;;;;;;5073391;28;20159;-78
2022/06/05 08:06:57;;;;;;;13.63;2.90;;;40.70;38.70;;;;;;5073883;28;20099;-76
2022/06/05 08:09:24;;;;;;;10.52;2.22;;;40.80;38.50;;;;;;5073714;28;20060;-77
2022/06/05 08:11:50;;;;;;;13.10;2.70;;;41.00;38.40;;;;;;5073988;28;20020;-77
2022/06/05 08:14:17;;;;;;;12.65;2.50;;;40.90;38.00;;;;;;5074158;28;20445;-77
2022/06/05 08:16:46;;;;;;;15.48;2.50;;;41.10;38.60;;;;;;5074041;28;20028;-76
2022/06/05 08:19:15;;;;;;;10.07;2.10;;;41.00;39.70;;;;;;5074422;28;20038;-77
2022/06/05 08:21:42;;;;;;;11.75;2.08;;;41.00;40.00;;;;;;5075062;28;20096;-76
2022/06/05 08:24:08;;;;;;;9.40;2.10;;;40.40;40.00;;;;;;5074820;28;20024;-76
2022/06/05 08:26:35;;;;;;;14.50;2.13;;;40.00;40.50;;;;;;5074798;28;20017;-76
2022/06/05 08:29:01;;;;;;;6.80;2.10;;;40.10;40.70;;;;;;5074876;28;20096;-77
2022/06/05 08:31:29;;;;;;;9.95;2.33;;;39.90;40.40;;;;;;5056438;28;20029;-76
2022/06/05 08:33:57;;;;;;;17.30;2.53;;;39.90;40.10;;;;;;5056380;28;20103;-77
2022/06/05 08:36:23;;;;;;;13.10;2.38;;;39.90;40.40;;;;;;5074245;28;20036;-76
2022/06/05 08:41:50;;;;;;;14.40;2.65;;;40.00;40.40;;;;;;5074247;28;20396;-77
2022/06/05 08:44:36;;;;;;;13.80;2.47;;;40.30;40.00;;;;;;5074243;28;20036;-77
2022/06/05 08:47:18;;;;;;;11.50;2.47;;;40.30;39.60;;;;;;5074515;28;20030;-77
2022/06/05 08:50:00;;;;;;;9.18;2.28;;;40.60;39.80;;;;;;5073780;28;20103;-77
2022/06/05 08:52:38;;;;;;;10.45;2.83;;;40.70;39.00;;;;;;5073817;28;20103;-78
2022/06/05 08:55:10;;;;;;;11.75;2.47;;;40.70;39.30;;;;;;5073397;28;20025;-76
2022/06/05 08:57:54;;;;;;;8.63;2.40;;;40.80;40.30;;;;;;5073923;28;20028;-78
2022/06/05 09:00:46;;;;;;;9.05;2.50;;;40.70;39.40;;;;;;5073418;28;20386;-77
2022/06/05 09:03:39;;;;;;;12.02;2.60;;;40.80;39.70;;;;;;5073404;28;20028;-77
2022/06/05 09:06:12;;;;;;;10.20;2.50;;;40.80;39.70;;;;;;5073707;28;20385;-78
2022/06/05 09:08:42;;;;;;;8.82;2.72;;;40.70;40.00;;;;;;5073248;28;20033;-77
2022/06/05 09:11:36;;;;;;;11.65;2.78;;;40.60;39.90;;;;;;5072615;28;20028;-76
2022/06/05 09:14:18;;;;;;;13.17;3.10;;;40.40;40.00;;;;;;5073240;28;20389;-77
2022/06/05 09:16:50;;;;;;;12.55;2.53;;;40.20;39.90;;;;;;5073489;28;20263;-76
2022/06/05 09:19:30;;;;;;;8.40;2.10;;;40.10;40.10;;;;;;5073477;28;20105;-77
2022/06/05 09:22:18;;;;;;;9.93;2.25;;;40.10;40.40;;;;;;5073296;28;20146;-77
2022/06/05 09:25:21;;;;;;;9.07;2.30;;;39.90;41.50;;;;;;5073071;28;20082;-77
2022/06/05 09:28:22;;;;;;;9.03;2.10;;;39.70;40.00;;;;;;5054893;28;20445;-77
2022/06/05 09:31:38;;;;;;;8.40;2.60;;;39.90;40.60;;;;;;5073362;28;20436;-77
2022/06/05 09:34:18;;;;;;;10.18;2.20;;;39.70;40.80;;;;;;5069901;28;20107;-78
2022/06/05 09:37:08;;;;;;;18.17;2.53;;;39.60;40.80;;;;;;5073315;28;20109;-78
2022/06/05 09:39:45;;;;;;;14.23;2.20;;;39.70;40.40;;;;;;5054856;28;20078;-77
2022/06/05 09:42:29;;;;;;;10.48;2.15;;;39.80;41.10;;;;;;5073058;28;20479;-78
2022/06/05 09:45:13;;;;;;;9.83;1.93;;;39.70;41.60;;;;;;5073670;28;20112;-77
2022/06/05 09:48:04;;;;;;;5.88;1.90;;;39.60;41.90;;;;;;5073202;28;20255;-77
2022/06/05 09:50:31;;;;;;;10.43;2.40;;;39.30;42.00;;;;;;5073140;28;20453;-79
2022/06/05 09:52:57;;;;;;;10.15;2.00;;;38.80;43.40;;;;;;5072898;28;20028;-77
2022/06/05 09:55:39;;;;;;;13.32;2.10;;;38.90;43.10;;;;;;5072538;28;20025;-77
2022/06/05 09:58:25;;;;;;;14.80;2.70;;;38.50;42.80;;;;;;5072443;28;20040;-78
2022/06/05 10:00:55;;;;;;;8.95;2.10;;;38.30;44.30;;;;;;5073080;28;20037;-77
2022/06/05 10:03:25;;;;;;;11.65;2.58;;;38.30;43.80;;;;;;5072233;28;20445;-77
2022/06/05 10:06:17;;;;;;;8.35;2.10;;;38.50;43.60;;;;;;5071909;28;20043;-77
2022/06/05 10:09:15;;;;;;;13.23;2.20;;;38.40;44.20;;;;;;5071939;28;20025;-76
2022/06/05 10:11:50;;;;;;;10.40;2.33;;;38.30;44.10;;;;;;5071978;28;20119;-76
2022/06/05 10:14:19;;;;;;;;;;;38.30;44.30;;;;;;5072293;28;20024;-76
2022/06/05 10:17:11;;;;;;;10.43;2.47;;;38.00;44.90;;;;;;5071542;28;19930;-77
2022/06/05 10:20:06;;;;;;;12.75;2.63;;;37.40;47.00;;;;;;5053587;28;20084;-77
2022/06/05 10:22:41;;;;;;;7.40;2.40;;;37.10;48.90;;;;;;5072766;28;20021;-77
2022/06/05 10:25:28;;;;;;;12.90;2.50;;;37.00;50.00;;;;;;5072850;28;20033;-78
2022/06/05 10:27:59;;;;;;;10.05;2.95;;;36.80;50.50;;;;;;5072637;28;20526;-77
2022/06/05 10:30:34;;;;;;;10.82;2.75;;;36.40;50.80;;;;;;5072459;28;20029;-77
2022/06/05 10:33:20;;;;;;;16.85;2.53;;;36.30;50.70;;;;;;5072258;28;20381;-77
2022/06/05 10:36:11;;;;;;;10.48;2.83;;;36.20;51.70;;;;;;5053975;28;20133;-78
2022/06/05 10:39:06;;;;;;;11.90;2.47;;;36.40;51.90;;;;;;5072610;28;20480;-77
2022/06/05 10:41:53;;;;;;;12.02;2.40;;;36.50;51.20;;;;;;5072758;28;20028;-77
2022/06/05 10:44:28;;;;;;;16.15;2.60;;;36.50;50.60;;;;;;5054049;28;20388;-76
2022/06/05 10:47:19;;;;;;;8.90;1.90;;;36.40;50.20;;;;;;5072615;28;20051;-77
2022/06/05 10:50:07;;;;;;;12.10;2.40;;;36.40;50.40;;;;;;5072573;28;20072;-77
2022/06/05 10:53:15;;;;;;;13.98;2.50;;;36.50;49.10;;;;;;5072336;28;20107;-76
2022/06/05 10:55:56;;;;;;;10.40;1.88;;;36.30;49.00;;;;;;5072075;28;20087;-76
2022/06/05 10:58:43;;;;;;;12.80;2.10;;;36.60;48.30;;;;;;5072136;28;20021;-76
2022/06/05 11:01:41;;;;;;;8.10;2.15;;;36.90;47.50;;;;;;5071809;28;20040;-77
2022/06/05 11:04:16;;;;;;;12.55;2.05;;;36.80;44.80;;;;;;5072095;28;20106;-77
2022/06/05 11:06:45;;;;;;;16.17;2.60;;;36.90;41.40;;;;;;5072156;28;20055;-77
2022/06/05 11:09:26;;;;;;;12.90;2.47;;;37.20;43.60;;;;;;5072216;28;20032;-76
2022/06/05 11:15:06;;;;;;;;;;;37.30;42.10;;;;;;5072338;28;20044;-77
2022/06/05 11:18:02;;;;;;;11.80;4.32;;;37.50;37.90;;;;;;5073970;28;19950;-77
2022/06/05 11:20:29;;;;;;;19.65;5.10;;;37.70;38.70;;;;;;5075755;28;20174;-76
2022/06/05 11:23:04;;;;;;;12.55;5.22;;;37.80;40.90;;;;;;5075739;28;20052;-77
2022/06/05 11:25:38;;;;;;;12.10;5.00;;;38.00;41.60;;;;;;5075811;28;20028;-77
2022/06/05 11:28:44;;;;;;;15.73;6.78;;;38.20;39.60;;;;;;5057154;28;20027;-77
2022/06/05 11:31:10;;;;;;;14.48;7.63;;;38.20;39.30;;;;;;5075579;28;20104;-77
2022/06/05 11:33:57;;;;;;;20.20;11.02;;;38.30;39.80;;;;;;5075159;28;20105;-77
2022/06/05 11:36:43;;;;;;;19.52;9.55;;;38.50;38.30;;;;;;5075665;28;20025;-76
2022/06/05 11:39:57;;;;;;;15.57;6.57;;;38.50;38.20;;;;;;5074997;28;20016;-76
2022/06/05 11:42:31;;;;;;;13.43;3.10;;;38.50;36.30;;;;;;5033480;28;20064;-77
2022/06/05 11:45:33;;;;;;;11.65;5.80;;;38.50;34.50;;;;;;5033289;28;20026;-77
2022/06/05 11:48:27;;;;;;;17.95;6.50;;;38.50;39.00;;;;;;5033149;28;20026;-76
2022/06/05 11:51:22;;;;;;;10.00;4.38;;;38.50;39.10;;;;;;5032673;28;20385;-76
2022/06/05 11:54:06;;;;;;;12.30;6.00;;;38.60;36.80;;;;;;5011717;28;20037;-76
2022/06/05 11:56:39;;;;;;;14.10;6.23;;;38.70;36.40;;;;;;5016130;28;20044;-76
2022/06/05 11:59:27;;;;;;;16.52;8.88;;;38.80;37.00;;;;;;5032863;28;20150;-76
2022/06/05 12:02:34;;;;;;;17.35;6.90;;;38.80;39.40;;;;;;5033151;28;20037;-76
2022/06/05 12:05:31;;;;;;;14.57;4.63;;;38.80;40.40;;;;;;4985871;28;20096;-76
2022/06/05 12:08:18;;;;;;;13.88;3.75;;;38.70;36.60;;;;;;5032681;28;20025;-75
2022/06/05 12:11:16;;;;;;;18.60;3.15;;;38.80;36.30;;;;;;5032814;28;20498;-76
2022/06/05 12:14:05;;;;;;;8.02;2.20;;;38.80;34.40;;;;;;5031918;28;20168;-75
2022/06/05 12:16:55;;;;;;;11.25;1.95;;;38.80;33.30;;;;;;5032460;28;20029;-76
2022/06/05 12:19:37;;;;;;;8.05;1.75;;;38.70;33.10;;;;;;5063268;28;20484;-75
2022/06/05 12:22:15;;;;;;;13.07;1.80;;;38.70;33.10;;;;;;5056110;28;20400;-76
2022/06/05 12:24:55;;;;;;;9.15;1.77;;;38.50;34.70;;;;;;5074453;28;20031;-77
2022/06/05 12:27:21;;;;;;;9.23;1.90;;;38.40;39.50;;;;;;5055792;28;20377;-76
2022/06/05 12:30:20;;;;;;;11.70;2.00;;;38.20;36.00;;;;;;5073272;28;20432;-76
2022/06/05 12:33:15;;;;;;;8.27;2.00;;;38.00;45.70;;;;;;5031840;28;20044;-75
2022/06/05 12:35:49;;;;;;;13.80;2.30;;;37.90;43.90;;;;;;5026424;28;20153;-77
2022/06/05 12:38:36;;;;;;;14.68;2.40;;;37.60;44.00;;;;;;5032202;28;20037;-76
2022/06/05 12:41:24;;;;;;;9.32;2.13;;;37.70;46.50;;;;;;5032341;28;20045;-76
2022/06/05 12:44:02;;;;;;;8.63;2.10;;;37.70;47.70;;;;;;5031966;28;20038;-76
2022/06/05 12:46:35;;;;;;;12.45;2.00;;;37.90;46.40;;;;;;5031837;28;20592;-77
2022/06/05 12:49:36;;;;;;;9.50;2.33;;;37.90;43.20;;;;;;5032205;28;20040;-75
2022/06/05 12:52:29;;;;;;;10.95;2.47;;;37.90;41.90;;;;;;4972958;28;20053;-77
2022/06/05 12:55:18;;;;;;;12.88;2.30;;;38.00;39.60;;;;;;4956616;28;20202;-77
2022/06/05 12:58:23;;;;;;;10.57;2.25;;;37.90;43.70;;;;;;4973104;28;20131;-75
2022/06/05 13:01:14;;;;;;;9.95;2.00;;;38.00;45.50;;;;;;4934301;29;20078;-76
2022/06/05 13:03:58;;;;;;;10.32;2.10;;;38.00;46.70;;;;;;4934266;29;20044;-76
2022/06/05 13:06:45;;;;;;;10.85;2.33;;;38.00;48.00;;;;;;4934331;29;20055;-76
2022/06/05 13:09:29;;;;;;;10.05;2.30;;;38.00;49.10;;;;;;4924181;29;20051;-75
2022/06/05 13:12:21;;;;;;;13.13;2.53;;;37.90;49.50;;;;;;4915461;29;20205;-76
2022/06/05 13:14:51;;;;;;;17.13;2.53;;;37.70;51.40;;;;;;4915550;29;20465;-76
2022/06/05 13:17:39;;;;;;;15.00;1.92;;;37.50;50.70;;;;;;4915060;29;20529;-77
2022/06/05 13:20:20;;;;;;;11.75;2.05;;;37.50;50.90;;;;;;4914821;29;20078;-76
2022/06/05 13:23:13;;;;;;;12.80;2.65;;;37.40;51.90;;;;;;4914723;29;20025;-76
2022/06/05 13:26:06;;;;;;;14.90;2.65;;;37.20;52.90;;;;;;4904751;29;20036;-76
2022/06/05 13:28:58;;;;;;;7.93;1.98;;;36.90;52.20;;;;;;4903501;29;20139;-76
2022/06/05 13:31:57;;;;;;;9.77;2.60;;;36.90;53.30;;;;;;4953282;29;20034;-77
2022/06/05 13:34:40;;;;;;;11.23;2.38;;;36.80;53.40;;;;;;4936658;29;20027;-77
2022/06/05 13:37:13;;;;;;;11.93;2.35;;;36.70;54.90;;;;;;5046049;28;20120;-76
2022/06/05 13:39:48;;;;;;;15.98;3.05;;;36.60;54.70;;;;;;5072546;28;20119;-75